createdAt,value
2022-12-23T00:01:59.728Z,99531.53
2022-12-23T00:04:28.521Z,99535.13
2022-12-23T00:06:56.684Z,99535.53
2022-12-23T00:09:27.216Z,99535.41
2022-12-23T00:12:14.201Z,99536.09
2022-12-23T00:15:01.511Z,99537.06
2022-12-23T00:17:35.209Z,99533.72
2022-12-23T00:20:06.457Z,99543.56
2022-12-23T00:22:52.272Z,99536.78
2022-12-23T00:25:40.399Z,99543.31
2022-12-23T00:28:12.683Z,99534.69
2022-12-23T00:30:50.030Z,99527.66
2022-12-23T00:33:20.130Z,99532.22
2022-12-23T00:35:51.186Z,99519.88
2022-12-23T00:38:42.966Z,99515.16
2022-12-23T00:41:30.410Z,99528.06
2022-12-23T00:43:59.699Z,99515.44
2022-12-23T00:46:30.412Z,99519.03
2022-12-23T00:49:18.669Z,99520.28
2022-12-23T00:51:47.060Z,99522.63
2022-12-23T00:54:15.122Z,99517.38
2022-12-23T00:56:48.164Z,99515.28
2022-12-23T00:59:16.490Z,99507.25
2022-12-23T01:02:04.303Z,99507.91
2022-12-23T01:04:51.304Z,99516.53
2022-12-23T01:07:23.394Z,99517.34
2022-12-23T01:09:51.528Z,99520.66
2022-12-23T01:12:19.728Z,99523.81
2022-12-23T01:14:47.714Z,99521.19
2022-12-23T01:17:24.279Z,99534.22
2022-12-23T01:19:53.114Z,99530.78
2022-12-23T01:22:21.807Z,99529.81
2022-12-23T01:24:52.841Z,99536.72
2022-12-23T01:27:24.606Z,99531.47
2022-12-23T01:29:52.581Z,99537.53
2022-12-23T01:32:22.487Z,99533.13
2022-12-23T01:34:51.671Z,99537.41
2022-12-23T01:37:19.691Z,99539.34
2022-12-23T01:39:48.737Z,99543.66
2022-12-23T01:42:48.467Z,99546.28
2022-12-23T01:45:18.693Z,99553.22
2022-12-23T01:47:52.555Z,99553.88
2022-12-23T01:50:26.677Z,99557.50
2022-12-23T01:53:06.967Z,99565.41
2022-12-23T01:55:39.637Z,99556.69
2022-12-23T01:58:13.411Z,99565.97
2022-12-23T02:01:01.402Z,99566.13
2022-12-23T02:03:46.565Z,99569.31
2022-12-23T02:06:39.464Z,99570.84
2022-12-23T02:09:37.460Z,99582.28
2022-12-23T02:12:31.307Z,99586.88
2022-12-23T02:15:44.111Z,99582.59
2022-12-23T02:18:47.951Z,99580.50
2022-12-23T02:21:32.151Z,99578.53
2022-12-23T02:24:42.607Z,99586.56
2022-12-23T02:27:15.031Z,99593.00
2022-12-23T02:30:07.906Z,99590.75
2022-12-23T02:32:53.214Z,99590.63
2022-12-23T02:35:30.391Z,99598.53
2022-12-23T02:38:07.905Z,99604.63
2022-12-23T02:40:45.971Z,99612.00
2022-12-23T02:43:20.832Z,99617.25
2022-12-23T02:45:56.882Z,99614.47
2022-12-23T02:48:35.306Z,99619.47
2022-12-23T02:51:08.147Z,99619.34
2022-12-23T02:53:39.489Z,99620.44
2022-12-23T02:56:10.407Z,99609.06
2022-12-23T02:58:46.535Z,99611.03
2022-12-23T03:01:18.200Z,99618.50
2022-12-23T03:03:49.256Z,99616.00
2022-12-23T03:06:23.497Z,99618.91
2022-12-23T03:08:55.145Z,99624.63
2022-12-23T03:11:41.174Z,99626.16
2022-12-23T03:14:34.072Z,99624.06
2022-12-23T03:17:19.250Z,99619.47
2022-12-23T03:19:58.244Z,99612.38
2022-12-23T03:22:35.684Z,99615.75
2022-12-23T03:25:09.643Z,99616.44
2022-12-23T03:27:42.590Z,99622.97
2022-12-23T03:30:13.999Z,99620.34
2022-12-23T03:32:48.020Z,99626.56
2022-12-23T03:35:22.449Z,99631.00
2022-12-23T03:37:55.916Z,99637.50
2022-12-23T03:40:27.967Z,99632.41
2022-12-23T03:43:04.674Z,99635.28
2022-12-23T03:45:40.781Z,99632.66
2022-12-23T03:48:18.101Z,99643.06
2022-12-23T03:50:53.155Z,99639.03
2022-12-23T03:53:27.113Z,99649.00
2022-12-23T03:56:03.234Z,99653.72
2022-12-23T03:58:38.982Z,99659.84
2022-12-23T04:01:17.639Z,99660.53
2022-12-23T04:04:00.256Z,99676.34
2022-12-23T04:06:41.397Z,99684.38
2022-12-23T04:09:21.724Z,99674.25
2022-12-23T04:11:54.324Z,99680.19
2022-12-23T04:14:24.775Z,99676.59
2022-12-23T04:16:58.385Z,99669.38
2022-12-23T04:19:27.870Z,99674.06
2022-12-23T04:21:58.133Z,99691.38
2022-12-23T04:24:26.261Z,99697.75
2022-12-23T04:26:55.023Z,99709.06
2022-12-23T04:29:26.025Z,99716.41
2022-12-23T04:31:54.253Z,99716.56
2022-12-23T04:34:25.861Z,99711.16
2022-12-23T04:36:54.314Z,99713.09
2022-12-23T04:39:26.853Z,99706.16
2022-12-23T04:41:55.479Z,99704.63
2022-12-23T04:44:23.984Z,99715.44
2022-12-23T04:46:52.186Z,99712.25
2022-12-23T04:49:30.688Z,99706.84
2022-12-23T04:52:00.177Z,99694.00
2022-12-23T04:54:30.110Z,99702.53
2022-12-23T04:56:59.956Z,99695.75
2022-12-23T04:59:28.616Z,99697.97
2022-12-23T05:01:56.687Z,99700.16
2022-12-23T05:04:25.068Z,99712.31
2022-12-23T05:06:57.523Z,99716.19
2022-12-23T05:09:27.686Z,99715.91
2022-12-23T05:11:59.209Z,99711.50
2022-12-23T05:14:28.437Z,99716.88
2022-12-23T05:16:59.645Z,99714.41
2022-12-23T05:19:31.840Z,99718.13
2022-12-23T05:22:03.753Z,99724.19
2022-12-23T05:24:34.188Z,99706.72
2022-12-23T05:27:04.736Z,99700.91
2022-12-23T05:29:34.270Z,99697.69
2022-12-23T05:32:05.912Z,99715.13
2022-12-23T05:34:40.100Z,99731.41
2022-12-23T05:37:08.434Z,99736.69
2022-12-23T05:39:38.807Z,99719.25
2022-12-23T05:42:09.029Z,99732.38
2022-12-23T05:44:38.435Z,99734.78
2022-12-23T05:47:07.244Z,99741.88
2022-12-23T05:49:39.744Z,99728.88
2022-12-23T05:52:08.841Z,99738.19
2022-12-23T05:54:37.165Z,99727.53
2022-12-23T05:57:06.716Z,99737.78
2022-12-23T05:59:36.714Z,99739.44
2022-12-23T06:02:06.186Z,99739.44
2022-12-23T06:04:34.912Z,99748.88
2022-12-23T06:07:03.326Z,99752.31
2022-12-23T06:09:32.591Z,99753.97
2022-12-23T06:12:00.611Z,99749.28
2022-12-23T06:14:31.069Z,99749.84
2022-12-23T06:17:02.855Z,99755.97
2022-12-23T06:19:31.782Z,99749.03
2022-12-23T06:22:02.392Z,99751.91
2022-12-23T06:24:30.437Z,99747.94
2022-12-23T06:26:59.611Z,99754.03
2022-12-23T06:29:28.726Z,99757.63
2022-12-23T06:31:58.204Z,99756.59
2022-12-23T06:34:27.908Z,99758.25
2022-12-23T06:36:56.476Z,99766.41
2022-12-23T06:39:25.195Z,99756.41
2022-12-23T06:41:55.455Z,99770.78
2022-12-23T06:44:26.375Z,99778.50
2022-12-23T06:46:54.778Z,99779.81
2022-12-23T06:49:22.834Z,99779.97
2022-12-23T06:51:52.322Z,99783.56
2022-12-23T06:54:21.104Z,99779.53
2022-12-23T06:56:50.420Z,99782.03
2022-12-23T06:59:18.414Z,99787.97
2022-12-23T07:01:49.082Z,99793.94
2022-12-23T07:04:17.676Z,99795.22
2022-12-23T07:06:48.251Z,99799.94
2022-12-23T07:09:24.329Z,99802.34
2022-12-23T07:11:52.380Z,99800.28
2022-12-23T07:14:23.542Z,99798.34
2022-12-23T07:16:52.191Z,99796.41
2022-12-23T07:19:21.935Z,99780.78
2022-12-23T07:21:52.615Z,99777.19
2022-12-23T07:24:21.570Z,99779.94
2022-12-23T07:26:56.444Z,99778.16
2022-12-23T07:29:26.147Z,99773.72
2022-12-23T07:31:54.212Z,99772.38
2022-12-23T07:34:24.282Z,99773.88
2022-12-23T07:36:55.937Z,99763.94
2022-12-23T07:39:24.279Z,99776.00
2022-12-23T07:42:09.352Z,99788.84
2022-12-23T07:44:42.921Z,99793.53
2022-12-23T07:47:12.142Z,99792.16
2022-12-23T07:49:42.565Z,99789.28
2022-12-23T07:52:13.623Z,99798.28
2022-12-23T07:54:44.873Z,99799.31
2022-12-23T07:57:14.996Z,99816.19
2022-12-23T07:59:44.192Z,99824.00
2022-12-23T08:02:12.751Z,99822.91
2022-12-23T08:04:46.524Z,99815.44
2022-12-23T08:07:15.493Z,99819.47
2022-12-23T08:09:43.424Z,99822.53
2022-12-23T08:12:12.054Z,99825.75
2022-12-23T08:14:42.335Z,99821.63
2022-12-23T08:17:13.656Z,99825.66
2022-12-23T08:19:42.269Z,99816.78
2022-12-23T08:22:10.795Z,99807.09
2022-12-23T08:24:38.937Z,99803.09
2022-12-23T08:27:08.060Z,99803.53
2022-12-23T08:29:36.776Z,99808.50
2022-12-23T08:32:08.077Z,99808.94
2022-12-23T08:34:37.167Z,99802.44
2022-12-23T08:37:07.029Z,99798.69
2022-12-23T08:39:35.910Z,99809.09
2022-12-23T08:42:06.375Z,99810.63
2022-12-23T08:44:35.565Z,99806.22
2022-12-23T08:47:07.965Z,99811.59
2022-12-23T08:49:37.012Z,99803.69
2022-12-23T08:52:05.264Z,99807.88
2022-12-23T08:54:34.888Z,99805.91
2022-12-23T08:57:03.073Z,99797.72
2022-12-23T08:59:31.129Z,99799.41
2022-12-23T09:02:13.279Z,99807.31
2022-12-23T09:04:44.708Z,99814.25
2022-12-23T09:07:13.080Z,99809.78
2022-12-23T09:09:41.437Z,99818.66
2022-12-23T09:12:11.838Z,99826.44
2022-12-23T09:14:40.909Z,99823.13
2022-12-23T09:17:11.869Z,99826.56
2022-12-23T09:19:40.184Z,99820.50
2022-12-23T09:22:10.559Z,99827.13
2022-12-23T09:24:39.108Z,99822.56
2022-12-23T09:27:07.611Z,99837.97
2022-12-23T09:29:35.705Z,99843.63
2022-12-23T09:32:04.996Z,99839.75
2022-12-23T09:34:38.093Z,99832.00
2022-12-23T09:37:06.488Z,99835.34
2022-12-23T09:39:35.472Z,99823.66
2022-12-23T09:42:08.362Z,99828.81
2022-12-23T09:44:51.702Z,99821.47
2022-12-23T09:47:24.259Z,99823.84
2022-12-23T09:50:00.113Z,99810.38
2022-12-23T09:52:44.059Z,99814.41
2022-12-23T09:55:17.451Z,99819.81
2022-12-23T09:57:56.677Z,99810.66
2022-12-23T10:00:25.277Z,99807.63
2022-12-23T10:03:09.846Z,99812.59
2022-12-23T10:05:52.787Z,99812.19
2022-12-23T10:08:29.144Z,99818.13
2022-12-23T10:11:04.251Z,99826.47
2022-12-23T10:13:37.529Z,99809.41
2022-12-23T10:16:10.025Z,99805.63
2022-12-23T10:18:51.912Z,99797.59
2022-12-23T10:21:29.002Z,99786.91
2022-12-23T10:24:03.686Z,99779.28
2022-12-23T10:26:41.709Z,99790.53
2022-12-23T10:29:19.207Z,99776.25
2022-12-23T10:31:59.763Z,99773.06
2022-12-23T10:34:42.583Z,99766.94
2022-12-23T10:37:20.707Z,99774.03
2022-12-23T10:40:01.406Z,99761.41
2022-12-23T10:42:35.797Z,99762.09
2022-12-23T10:45:27.334Z,99757.06
2022-12-23T10:48:10.288Z,99749.88
2022-12-23T10:50:57.214Z,99749.88
2022-12-23T10:53:36.982Z,99732.38
2022-12-23T10:56:07.371Z,99731.81
2022-12-23T10:58:42.109Z,99734.88
2022-12-23T11:01:18.977Z,99738.34
2022-12-23T11:04:01.651Z,99733.75
2022-12-23T11:06:37.483Z,99735.97
2022-12-23T11:09:13.985Z,99735.28
2022-12-23T11:11:59.798Z,99734.72
2022-12-23T11:14:43.536Z,99721.28
2022-12-23T11:17:25.285Z,99703.66
2022-12-23T11:20:13.544Z,99705.06
2022-12-23T11:22:50.562Z,99707.97
2022-12-23T11:25:30.148Z,99700.78
2022-12-23T11:28:04.560Z,99703.25
2022-12-23T11:30:37.916Z,99688.28
2022-12-23T11:33:07.618Z,99689.25
2022-12-23T11:35:38.166Z,99676.34
2022-12-23T11:38:15.357Z,99666.34
2022-12-23T11:40:47.977Z,99665.38
2022-12-23T11:43:21.043Z,99657.75
2022-12-23T11:45:49.724Z,99661.91
2022-12-23T11:48:30.612Z,99650.53
2022-12-23T11:51:07.071Z,99636.53
2022-12-23T11:53:37.393Z,99635.84
2022-12-23T11:56:16.616Z,99626.00
2022-12-23T11:58:49.787Z,99629.31
2022-12-23T12:01:20.268Z,99621.53
2022-12-23T12:03:52.441Z,99628.78
2022-12-23T12:06:25.566Z,99622.13
2022-12-23T12:08:57.075Z,99616.72
2022-12-23T12:11:30.741Z,99611.44
2022-12-23T12:14:24.383Z,99600.75
2022-12-23T12:17:01.811Z,99596.59
2022-12-23T12:19:33.627Z,99594.94
2022-12-23T12:22:07.161Z,99581.09
2022-12-23T12:24:42.496Z,99574.97
2022-12-23T12:27:14.936Z,99574.84
2022-12-23T12:29:49.995Z,99567.59
2022-12-23T12:32:24.157Z,99561.34
2022-12-23T12:34:58.078Z,99550.13
2022-12-23T12:37:36.434Z,99549.59
2022-12-23T12:40:19.491Z,99565.94
2022-12-23T12:42:59.207Z,99557.91
2022-12-23T12:45:38.907Z,99551.78
2022-12-23T12:48:29.036Z,99545.00
2022-12-23T12:51:06.271Z,99548.47
2022-12-23T12:53:36.572Z,99554.03
2022-12-23T12:56:14.099Z,99547.28
2022-12-23T12:58:45.960Z,99556.66
2022-12-23T13:01:32.196Z,99551.78
2022-12-23T13:04:33.696Z,99544.03
2022-12-23T13:07:14.617Z,99534.00
2022-12-23T13:09:57.247Z,99532.22
2022-12-23T13:12:40.187Z,99519.03
2022-12-23T13:15:20.731Z,99504.03
2022-12-23T13:18:06.791Z,99496.00
2022-12-23T13:20:44.332Z,99491.41
2022-12-23T13:23:42.957Z,99494.75
2022-12-23T13:26:20.378Z,99486.00
2022-12-23T13:28:58.092Z,99481.13
2022-12-23T13:31:44.074Z,99465.75
2022-12-23T13:34:27.213Z,99471.00
2022-12-23T13:37:05.819Z,99466.56
2022-12-23T13:39:47.209Z,99446.06
2022-12-23T13:42:26.494Z,99447.44
2022-12-23T13:45:04.318Z,99447.28
2022-12-23T13:47:46.622Z,99443.28
2022-12-23T13:50:25.274Z,99431.94
2022-12-23T13:53:11.502Z,99429.66
2022-12-23T13:56:00.340Z,99425.50
2022-12-23T13:58:33.951Z,99419.47
2022-12-23T14:01:38.893Z,99413.38
2022-12-23T14:04:57.561Z,99420.31
2022-12-23T14:07:33.640Z,99416.72
2022-12-23T14:10:14.039Z,99411.03
2022-12-23T14:12:44.111Z,99400.81
2022-12-23T14:15:33.369Z,99398.41
2022-12-23T14:18:16.910Z,99393.44
2022-12-23T14:20:52.251Z,99393.59
2022-12-23T14:23:50.621Z,99393.13
2022-12-23T14:26:40.638Z,99371.06
2022-12-23T14:29:25.691Z,99378.97
2022-12-23T14:31:57.830Z,99378.44
2022-12-23T14:34:32.796Z,99356.56
2022-12-23T14:37:37.299Z,99360.16
2022-12-23T14:40:53.449Z,99361.50
2022-12-23T14:43:52.672Z,99342.38
2022-12-23T14:46:55.498Z,99336.53
2022-12-23T14:49:48.059Z,99324.16
2022-12-23T14:52:47.920Z,99317.91
2022-12-23T14:55:46.009Z,99310.97
2022-12-23T14:59:00.745Z,99308.34
2022-12-23T15:01:35.817Z,99310.84
2022-12-23T15:04:13.257Z,99314.00
2022-12-23T15:06:45.751Z,99314.00
2022-12-23T15:09:25.772Z,99314.66
2022-12-23T15:11:55.623Z,99312.53
2022-12-23T15:14:33.749Z,99316.53
2022-12-23T15:17:18.429Z,99315.03
2022-12-23T15:19:48.323Z,99320.97
2022-12-23T15:22:22.713Z,99308.47
2022-12-23T15:24:53.588Z,99305.81
2022-12-23T15:27:27.975Z,99302.38
2022-12-23T15:29:58.399Z,99311.28
2022-12-23T15:32:28.557Z,99326.91
2022-12-23T15:35:03.376Z,99340.19
2022-12-23T15:37:32.328Z,99372.03
2022-12-23T15:40:12.831Z,99338.75
2022-12-23T15:42:49.800Z,99373.47
2022-12-23T15:45:38.632Z,99345.81
2022-12-23T15:48:22.501Z,99331.50
2022-12-23T15:50:53.804Z,99347.19
2022-12-23T15:53:22.573Z,99352.59
2022-12-23T15:55:56.800Z,99352.91
2022-12-23T15:58:25.988Z,99357.41
2022-12-23T16:00:57.484Z,99353.78
2022-12-23T16:03:34.218Z,99352.97
2022-12-23T16:06:16.747Z,99359.75
2022-12-23T16:08:46.144Z,99348.22
2022-12-23T16:11:24.293Z,99342.47
2022-12-23T16:14:00.412Z,99336.75
2022-12-23T16:16:39.549Z,99327.31
2022-12-23T16:19:28.326Z,99329.97
2022-12-23T16:21:59.176Z,99330.13
2022-12-23T16:24:27.367Z,99330.13
2022-12-23T16:26:57.620Z,99322.38
2022-12-23T16:29:25.968Z,99318.22
2022-12-23T16:32:01.653Z,99309.47
2022-12-23T16:34:32.757Z,99308.34
2022-12-23T16:37:01.129Z,99302.25
2022-12-23T16:39:33.090Z,99316.78
2022-12-23T16:42:02.758Z,99313.50
2022-12-23T16:44:31.089Z,99314.56
2022-12-23T16:47:08.171Z,99322.25
2022-12-23T16:49:38.530Z,99329.00
2022-12-23T16:52:10.308Z,99316.03
2022-12-23T16:54:38.864Z,99320.69
2022-12-23T16:57:09.464Z,99337.22
2022-12-23T16:59:43.155Z,99324.22
2022-12-23T17:02:19.811Z,99324.56
2022-12-23T17:04:48.155Z,99341.28
2022-12-23T17:07:20.792Z,99350.88
2022-12-23T17:09:49.804Z,99356.00
2022-12-23T17:12:19.884Z,99356.19
2022-12-23T17:14:52.670Z,99347.28
2022-12-23T17:17:28.101Z,99347.13
2022-12-23T17:19:57.703Z,99348.63
2022-12-23T17:22:28.132Z,99351.41
2022-12-23T17:24:57.198Z,99381.81
2022-12-23T17:27:29.240Z,99388.28
2022-12-23T17:29:59.520Z,99384.50
2022-12-23T17:32:28.685Z,99379.88
2022-12-23T17:34:58.749Z,99378.09
2022-12-23T17:37:29.260Z,99369.38
2022-12-23T17:40:01.616Z,99352.03
2022-12-23T17:42:35.602Z,99352.19
2022-12-23T17:45:20.321Z,99369.72
2022-12-23T17:47:50.897Z,99368.75
2022-12-23T17:50:19.460Z,99371.38
2022-12-23T17:52:52.567Z,99382.47
2022-12-23T17:55:23.795Z,99382.97
2022-12-23T17:57:56.775Z,99393.38
2022-12-23T18:00:31.989Z,99393.38
2022-12-23T18:03:03.092Z,99381.13
2022-12-23T18:05:32.743Z,99384.63
2022-12-23T18:08:03.371Z,99376.97
2022-12-23T18:10:37.253Z,99378.63
2022-12-23T18:13:11.175Z,99384.59
2022-12-23T18:15:45.907Z,99387.09
2022-12-23T18:18:23.884Z,99407.41
2022-12-23T18:20:57.981Z,99401.63
2022-12-23T18:23:28.982Z,99404.94
2022-12-23T18:25:58.440Z,99423.09
2022-12-23T18:28:30.474Z,99416.28
2022-12-23T18:31:03.997Z,99420.25
2022-12-23T18:33:35.489Z,99418.47
2022-12-23T18:36:06.460Z,99421.75
2022-12-23T18:38:36.809Z,99426.53
2022-12-23T18:41:04.966Z,99429.16
2022-12-23T18:43:39.200Z,99436.38
2022-12-23T18:46:09.397Z,99434.34
2022-12-23T18:48:38.998Z,99440.66
2022-12-23T18:51:07.240Z,99454.09
2022-12-23T18:53:35.143Z,99461.66
2022-12-23T18:56:07.487Z,99460.16
2022-12-23T18:58:37.592Z,99453.94
2022-12-23T19:01:06.863Z,99460.16
2022-12-23T19:03:35.082Z,99484.03
2022-12-23T19:06:08.141Z,99479.75
2022-12-23T19:08:37.509Z,99486.06
2022-12-23T19:11:12.241Z,99481.72
2022-12-23T19:13:45.007Z,99471.16
2022-12-23T19:16:17.391Z,99475.47
2022-12-23T19:18:47.996Z,99479.22
2022-12-23T19:21:16.694Z,99492.63
2022-12-23T19:23:48.409Z,99490.41
2022-12-23T19:26:44.429Z,99500.69
2022-12-23T19:29:14.713Z,99492.91
2022-12-23T19:31:42.742Z,99496.13
2022-12-23T19:34:15.408Z,99497.06
2022-12-23T19:36:45.871Z,99503.34
2022-12-23T19:39:17.011Z,99519.84
2022-12-23T19:41:50.252Z,99512.53
2022-12-23T19:44:21.542Z,99515.81
2022-12-23T19:46:51.044Z,99527.53
2022-12-23T19:49:22.492Z,99528.72
2022-12-23T19:51:56.703Z,99529.69
2022-12-23T19:54:27.492Z,99524.63
2022-12-23T19:56:59.117Z,99525.94
2022-12-23T19:59:28.684Z,99548.84
2022-12-23T20:02:00.417Z,99543.06
2022-12-23T20:04:33.487Z,99537.34
2022-12-23T20:07:01.543Z,99543.78
2022-12-23T20:09:31.518Z,99537.63
2022-12-23T20:12:01.170Z,99549.47
2022-12-23T20:14:34.086Z,99532.81
2022-12-23T20:17:05.831Z,99537.56
2022-12-23T20:19:34.113Z,99551.66
2022-12-23T20:22:08.002Z,99561.34
2022-12-23T20:24:37.551Z,99559.66
2022-12-23T20:27:11.014Z,99551.84
2022-12-23T20:29:45.913Z,99574.84
2022-12-23T20:32:14.346Z,99588.50
2022-12-23T20:34:42.997Z,99585.78
2022-12-23T20:37:11.703Z,99588.22
2022-12-23T20:39:40.034Z,99585.72
2022-12-23T20:42:09.444Z,99608.72
2022-12-23T20:44:37.809Z,99608.03
2022-12-23T20:47:07.961Z,99604.66
2022-12-23T20:49:39.844Z,99613.84
2022-12-23T20:52:08.946Z,99611.53
2022-12-23T20:54:37.551Z,99606.06
2022-12-23T20:57:06.054Z,99611.47
2022-12-23T20:59:36.090Z,99607.13
2022-12-23T21:02:04.191Z,99617.94
2022-12-23T21:04:33.607Z,99613.41
2022-12-23T21:07:03.651Z,99621.78
2022-12-23T21:09:34.141Z,99638.81
2022-12-23T21:12:06.800Z,99645.31
2022-12-23T21:14:37.400Z,99638.53
2022-12-23T21:17:25.903Z,99639.00
2022-12-23T21:19:58.353Z,99643.22
2022-12-23T21:22:31.886Z,99644.94
2022-12-23T21:24:59.847Z,99659.72
2022-12-23T21:27:27.919Z,99662.66
2022-12-23T21:29:59.554Z,99681.31
2022-12-23T21:32:27.922Z,99676.25
2022-12-23T21:35:00.114Z,99681.06
2022-12-23T21:37:29.582Z,99683.50
2022-12-23T21:40:00.784Z,99685.00
2022-12-23T21:42:31.146Z,99695.25
2022-12-23T21:44:59.170Z,99678.81
2022-12-23T21:47:29.426Z,99679.19
2022-12-23T21:49:59.000Z,99678.28
2022-12-23T21:52:27.119Z,99693.47
2022-12-23T21:54:56.299Z,99690.56
2022-12-23T21:57:24.775Z,99701.78
2022-12-23T21:59:53.833Z,99693.41
2022-12-23T22:02:24.875Z,99709.16
2022-12-23T22:04:54.581Z,99716.47
2022-12-23T22:07:26.901Z,99715.06
2022-12-23T22:09:58.857Z,99730.19
2022-12-23T22:12:28.527Z,99724.31
2022-12-23T22:14:58.338Z,99725.09
2022-12-23T22:17:28.877Z,99727.88
2022-12-23T22:20:00.557Z,99721.53
2022-12-23T22:22:31.893Z,99720.69
2022-12-23T22:25:00.118Z,99722.72
2022-12-23T22:27:29.254Z,99729.06
2022-12-23T22:30:01.269Z,99742.69
2022-12-23T22:32:30.619Z,99744.34
2022-12-23T22:34:59.198Z,99745.66
2022-12-23T22:37:31.262Z,99751.16
2022-12-23T22:40:03.564Z,99752.06
2022-12-23T22:42:34.282Z,99741.78
2022-12-23T22:45:06.018Z,99739.44
2022-12-23T22:47:34.074Z,99754.44
2022-12-23T22:50:02.691Z,99764.13
2022-12-23T22:52:34.024Z,99748.13
2022-12-23T22:55:03.707Z,99758.16
2022-12-23T22:57:35.708Z,99758.31
2022-12-23T23:00:11.636Z,99772.31
2022-12-23T23:02:41.400Z,99777.44
2022-12-23T23:05:13.322Z,99778.00
2022-12-23T23:07:42.932Z,99779.66
2022-12-23T23:10:11.945Z,99780.34
2022-12-23T23:12:41.027Z,99783.06
2022-12-23T23:15:10.017Z,99804.28
2022-12-23T23:17:39.475Z,99801.47
2022-12-23T23:20:10.873Z,99817.16
2022-12-23T23:22:39.324Z,99825.31
2022-12-23T23:25:10.569Z,99815.28
2022-12-23T23:27:39.549Z,99822.34
2022-12-23T23:30:08.747Z,99816.09
2022-12-23T23:32:37.679Z,99824.84
2022-12-23T23:35:11.051Z,99823.56
2022-12-23T23:37:41.745Z,99828.19
2022-12-23T23:40:16.831Z,99841.38
2022-12-23T23:42:45.863Z,99838.06
2022-12-23T23:45:15.557Z,99856.25
2022-12-23T23:47:44.750Z,99856.25
2022-12-23T23:50:13.116Z,99863.47
2022-12-23T23:52:40.980Z,99867.69
2022-12-23T23:55:10.012Z,99870.44
2022-12-23T23:57:43.366Z,99876.84
